Time;durP1;ratioP1;P1;durP2;ratioP2;P2;SDS_P1;SDS_P2;PMS_P1;PMS_P2;Temp;Humidity;BMP_temperature;BMP_pressure;BME280_temperature;BME280_humidity;BME280_pressure;Samples;Min_cycle;Max_cycle;Signal;HPM_P1;HPM_P2
2024/01/08 00:00:30;;;;;;;0.00;0.00;;;1.60;72.40;;;;;;5063977;28;20204;-34
2024/01/08 00:02:57;;;;;;;0.00;0.00;;;1.60;72.40;;;;;;5064868;28;20203;-34
2024/01/08 00:05:27;;;;;;;0.00;0.00;;;1.60;72.40;;;;;;5065679;28;20831;-33
2024/01/08 00:07:59;;;;;;;0.00;0.00;;;1.60;73.20;;;;;;5066023;28;20199;-34
2024/01/08 00:10:26;;;;;;;0.00;0.00;;;1.60;72.60;;;;;;5067688;28;20204;-34
2024/01/08 00:12:55;;;;;;;0.00;0.00;;;1.60;72.60;;;;;;5067534;28;20200;-34
2024/01/08 00:15:22;;;;;;;0.00;0.00;;;1.60;72.60;;;;;;5066002;28;20694;-34
2024/01/08 00:17:50;;;;;;;0.00;0.00;;;1.50;72.50;;;;;;5080258;28;20234;-35
2024/01/08 00:20:18;;;;;;;0.00;0.00;;;1.50;72.40;;;;;;5068946;28;20203;-34
2024/01/08 00:22:45;;;;;;;0.00;0.00;;;1.50;72.40;;;;;;5074403;28;20199;-34
2024/01/08 00:25:12;;;;;;;0.00;0.00;;;1.50;72.50;;;;;;5070837;28;20203;-35
2024/01/08 00:27:40;;;;;;;0.00;0.00;;;1.50;72.60;;;;;;5070590;28;20218;-34
2024/01/08 00:30:10;;;;;;;0.00;0.00;;;1.50;72.70;;;;;;5068900;28;20204;-34
2024/01/08 00:32:39;;;;;;;0.00;0.00;;;1.50;72.70;;;;;;5068771;28;20210;-34
2024/01/08 00:35:07;;;;;;;0.00;0.00;;;1.60;72.70;;;;;;5068205;28;20203;-33
2024/01/08 00:37:41;;;;;;;0.00;0.00;;;1.60;72.80;;;;;;5053113;28;20682;-34
2024/01/08 00:40:10;;;;;;;0.00;0.00;;;1.60;72.80;;;;;;5070431;28;20218;-34
2024/01/08 00:42:40;;;;;;;0.00;0.00;;;1.60;72.90;;;;;;5069403;28;20200;-34
2024/01/08 00:45:08;;;;;;;0.00;0.00;;;1.70;72.90;;;;;;5069010;28;20219;-34
2024/01/08 00:47:37;;;;;;;0.00;0.00;;;1.70;72.80;;;;;;5067182;28;20689;-34
2024/01/08 00:50:09;;;;;;;0.00;0.00;;;1.70;72.70;;;;;;5068407;28;20346;-33
2024/01/08 00:52:37;;;;;;;0.00;0.00;;;1.80;72.70;;;;;;5069256;28;20296;-33
2024/01/08 00:55:07;;;;;;;0.00;0.00;;;1.70;72.40;;;;;;5069151;28;20204;-34
2024/01/08 00:57:34;;;;;;;0.00;0.00;;;1.70;72.40;;;;;;5069157;28;20220;-34
2024/01/08 01:00:02;;;;;;;0.00;0.00;;;1.70;72.50;;;;;;5068884;28;20196;-34
2024/01/08 01:02:32;;;;;;;0.00;0.00;;;1.70;72.50;;;;;;5066819;28;20239;-34
2024/01/08 01:05:02;;;;;;;0.00;0.00;;;1.70;72.50;;;;;;5067763;28;20227;-34
2024/01/08 01:07:33;;;;;;;0.00;0.00;;;1.70;72.50;;;;;;5068698;28;20199;-33
2024/01/08 01:10:00;;;;;;;0.00;0.00;;;1.70;72.50;;;;;;5068572;28;20207;-34
2024/01/08 01:12:27;;;;;;;0.00;0.00;;;1.70;72.20;;;;;;5068193;28;20207;-34
2024/01/08 01:14:57;;;;;;;0.00;0.00;;;1.70;72.20;;;;;;5068220;28;20684;-33
2024/01/08 01:17:24;;;;;;;0.00;0.00;;;1.70;72.10;;;;;;5066649;28;20237;-33
2024/01/08 01:19:52;;;;;;;0.00;0.00;;;1.60;71.70;;;;;;5066179;28;20257;-33
2024/01/08 01:22:19;;;;;;;0.00;0.00;;;1.60;71.80;;;;;;5054463;28;20207;-33
2024/01/08 01:24:46;;;;;;;0.00;0.00;;;1.60;71.90;;;;;;5068272;28;20206;-34
2024/01/08 01:27:16;;;;;;;0.00;0.00;;;1.50;72.00;;;;;;5069543;28;20298;-33
2024/01/08 01:29:43;;;;;;;0.00;0.00;;;1.50;72.00;;;;;;5068048;28;21003;-33
2024/01/08 01:32:15;;;;;;;0.00;0.00;;;1.50;72.10;;;;;;5068325;28;20211;-33
2024/01/08 01:34:44;;;;;;;0.00;0.00;;;1.50;72.10;;;;;;5048798;28;20204;-32
2024/01/08 01:37:12;;;;;;;0.00;0.00;;;1.50;71.90;;;;;;5066777;28;20230;-33
2024/01/08 01:39:41;;;;;;;0.00;0.00;;;1.50;71.90;;;;;;5051751;28;20301;-32
2024/01/08 01:42:10;;;;;;;0.00;0.00;;;1.50;71.90;;;;;;5067681;28;20191;-33
2024/01/08 01:44:38;;;;;;;0.00;0.00;;;1.50;71.90;;;;;;5034974;28;20204;-33
2024/01/08 01:47:05;;;;;;;0.00;0.00;;;1.50;72.00;;;;;;5068575;28;20214;-33
2024/01/08 01:49:33;;;;;;;0.00;0.00;;;1.50;72.10;;;;;;5067626;28;20207;-33
2024/01/08 01:52:01;;;;;;;0.00;0.00;;;1.50;72.00;;;;;;5067194;28;20238;-32
2024/01/08 01:54:32;;;;;;;0.00;0.00;;;1.50;72.00;;;;;;5063656;28;20200;-32
2024/01/08 01:57:02;;;;;;;0.00;0.00;;;1.50;71.90;;;;;;5084159;28;20223;-33
2024/01/08 01:59:30;;;;;;;0.00;0.00;;;1.40;71.90;;;;;;5072465;28;20238;-32
2024/01/08 02:01:58;;;;;;;0.00;0.00;;;1.40;71.90;;;;;;5067177;28;20204;-33
2024/01/08 02:04:30;;;;;;;0.00;0.00;;;1.40;71.80;;;;;;5067659;28;20708;-32
2024/01/08 02:07:01;;;;;;;0.00;0.00;;;1.40;71.80;;;;;;5067376;28;20239;-33
2024/01/08 02:09:28;;;;;;;0.00;0.00;;;1.40;71.80;;;;;;5065358;28;20208;-33
2024/01/08 02:11:56;;;;;;;0.00;0.00;;;1.40;72.40;;;;;;5063739;28;20211;-32
2024/01/08 02:14:23;;;;;;;0.00;0.00;;;1.40;71.70;;;;;;5065356;28;20320;-32
2024/01/08 02:16:53;;;;;;;0.00;0.00;;;1.40;71.80;;;;;;5066312;28;20344;-32
2024/01/08 02:19:23;;;;;;;0.00;0.00;;;1.40;71.80;;;;;;5066703;28;20199;-33
2024/01/08 02:21:52;;;;;;;0.00;0.00;;;1.40;71.50;;;;;;5065376;28;20215;-33
2024/01/08 02:24:27;;;;;;;0.00;0.00;;;1.40;71.50;;;;;;5063530;28;20218;-32
2024/01/08 02:26:57;;;;;;;0.00;0.00;;;1.30;71.40;;;;;;5064499;28;20206;-33
2024/01/08 02:29:26;;;;;;;0.00;0.00;;;1.30;71.40;;;;;;5064755;28;20215;-33
2024/01/08 02:31:53;;;;;;;0.00;0.00;;;1.30;71.40;;;;;;5063547;28;20214;-32
2024/01/08 02:34:25;;;;;;;0.00;0.00;;;1.30;71.50;;;;;;5062796;28;20222;-33
2024/01/08 02:36:55;;;;;;;0.00;0.00;;;1.30;71.50;;;;;;5063074;28;20292;-32
2024/01/08 02:39:22;;;;;;;0.00;0.00;;;1.30;71.50;;;;;;5063390;28;20211;-32
2024/01/08 02:41:52;;;;;;;0.00;0.00;;;1.20;71.50;;;;;;5064785;28;20200;-32
2024/01/08 02:44:21;;;;;;;0.00;0.00;;;1.20;71.50;;;;;;5064786;28;20203;-32
2024/01/08 02:46:49;;;;;;;0.00;0.00;;;1.20;71.50;;;;;;5063354;28;20195;-32
2024/01/08 02:49:16;;;;;;;0.00;0.00;;;1.20;71.50;;;;;;5066599;28;20264;-31
2024/01/08 02:51:43;;;;;;;0.00;0.00;;;1.20;71.20;;;;;;5053236;28;20296;-33
2024/01/08 02:54:10;;;;;;;0.00;0.00;;;1.30;71.00;;;;;;5066366;28;20212;-32
2024/01/08 02:56:40;;;;;;;0.00;0.00;;;1.20;71.20;;;;;;5066316;28;20231;-32
2024/01/08 02:59:10;;;;;;;0.00;0.00;;;1.30;71.30;;;;;;5066714;28;20203;-33
2024/01/08 03:01:38;;;;;;;0.00;0.00;;;1.20;71.10;;;;;;5066673;28;20195;-33
2024/01/08 03:04:05;;;;;;;0.00;0.00;;;1.20;71.00;;;;;;5065994;28;20261;-32
2024/01/08 03:06:35;;;;;;;0.00;0.00;;;1.20;71.20;;;;;;5066158;28;20651;-33
2024/01/08 03:09:02;;;;;;;0.00;0.00;;;1.20;71.30;;;;;;5067894;28;20208;-32
2024/01/08 03:11:29;;;;;;;0.00;0.00;;;1.20;70.90;;;;;;5050183;28;20199;-32
2024/01/08 03:13:59;;;;;;;0.00;0.00;;;1.30;71.00;;;;;;5049928;28;20226;-33
2024/01/08 03:16:26;;;;;;;0.00;0.00;;;1.20;71.00;;;;;;5065376;28;20197;-32
2024/01/08 03:18:53;;;;;;;0.00;0.00;;;1.20;71.20;;;;;;5064209;28;20207;-33
2024/01/08 03:21:21;;;;;;;0.00;0.00;;;1.20;71.00;;;;;;5062351;28;20724;-32
2024/01/08 03:23:50;;;;;;;0.00;0.00;;;1.20;71.10;;;;;;5064853;28;20211;-32
2024/01/08 03:26:20;;;;;;;0.00;0.00;;;1.20;71.10;;;;;;5064431;28;20208;-33
2024/01/08 03:28:47;;;;;;;0.00;0.00;;;1.20;71.10;;;;;;5064406;28;20665;-33
2024/01/08 03:31:15;;;;;;;0.00;0.00;;;1.20;71.20;;;;;;5064448;28;20282;-34
2024/01/08 03:33:44;;;;;;;0.00;0.00;;;1.20;71.10;;;;;;5063644;28;20213;-33
2024/01/08 03:36:14;;;;;;;0.00;0.00;;;1.20;71.10;;;;;;5064648;28;20199;-33
2024/01/08 03:38:44;;;;;;;0.00;0.00;;;1.20;70.80;;;;;;5067091;28;20239;-32
2024/01/08 03:41:11;;;;;;;0.00;0.00;;;1.20;70.80;;;;;;5051499;28;20216;-34
2024/01/08 03:43:43;;;;;;;0.00;0.00;;;1.10;70.70;;;;;;5068652;28;20203;-34
2024/01/08 03:46:13;;;;;;;0.00;0.00;;;1.10;70.70;;;;;;5071449;28;20226;-34
2024/01/08 03:48:40;;;;;;;0.00;0.00;;;1.10;70.60;;;;;;5069117;28;20219;-33
2024/01/08 03:51:09;;;;;;;0.00;0.00;;;1.00;70.40;;;;;;5070997;28;20203;-33
2024/01/08 03:53:39;;;;;;;0.00;0.00;;;1.00;70.30;;;;;;5071243;28;20238;-34
2024/01/08 03:56:06;;;;;;;0.20;0.00;;;1.00;70.50;;;;;;5070018;28;20665;-33
2024/01/08 03:58:37;;;;;;;0.00;0.00;;;1.00;70.50;;;;;;5069284;28;20224;-34
2024/01/08 04:01:06;;;;;;;0.00;0.00;;;0.90;70.40;;;;;;5069211;28;20192;-33
2024/01/08 04:03:36;;;;;;;0.00;0.00;;;0.90;70.40;;;;;;5067377;28;20291;-33
2024/01/08 04:06:03;;;;;;;0.00;0.00;;;0.90;70.40;;;;;;5067372;28;20227;-33
2024/01/08 04:08:31;;;;;;;0.00;0.00;;;0.90;70.40;;;;;;5050110;28;20239;-32
2024/01/08 04:10:59;;;;;;;0.00;0.00;;;0.90;70.50;;;;;;5066442;28;20932;-34
2024/01/08 04:13:28;;;;;;;0.00;0.00;;;0.90;70.50;;;;;;5067626;28;20247;-34
2024/01/08 04:15:57;;;;;;;0.00;0.00;;;0.90;70.10;;;;;;5066595;28;20289;-33
2024/01/08 04:18:24;;;;;;;0.00;0.00;;;0.90;70.60;;;;;;5065716;28;20212;-34
2024/01/08 04:20:51;;;;;;;0.00;0.00;;;0.90;70.40;;;;;;5067239;28;20217;-33
2024/01/08 04:23:19;;;;;;;0.00;0.00;;;0.90;70.60;;;;;;5067525;28;20215;-32
2024/01/08 04:25:46;;;;;;;0.00;0.00;;;0.90;70.60;;;;;;5050176;28;20252;-33
2024/01/08 04:28:15;;;;;;;0.00;0.00;;;1.00;70.60;;;;;;5067260;28;20582;-32
2024/01/08 04:30:43;;;;;;;0.00;0.00;;;1.00;70.40;;;;;;5067442;28;20837;-33
2024/01/08 04:33:13;;;;;;;0.00;0.00;;;1.00;70.50;;;;;;5066514;28;20219;-33
2024/01/08 04:35:45;;;;;;;0.00;0.00;;;1.00;70.50;;;;;;5067207;28;20209;-32
2024/01/08 04:38:14;;;;;;;0.00;0.00;;;1.00;70.40;;;;;;5069361;28;20645;-33
2024/01/08 04:40:44;;;;;;;0.00;0.00;;;0.90;70.30;;;;;;5073926;28;20584;-28
2024/01/08 04:43:13;;;;;;;0.00;0.00;;;1.00;70.60;;;;;;5068839;28;20210;-28
2024/01/08 04:45:41;;;;;;;0.00;0.00;;;1.00;70.60;;;;;;5070465;28;20200;-28
2024/01/08 04:48:08;;;;;;;0.00;0.00;;;0.90;70.40;;;;;;5050456;28;20217;-28
2024/01/08 04:50:35;;;;;;;0.00;0.00;;;0.90;70.30;;;;;;5068630;28;20203;-27
2024/01/08 04:53:03;;;;;;;0.00;0.00;;;0.90;71.10;;;;;;5068900;28;20228;-28
2024/01/08 04:55:30;;;;;;;0.00;0.00;;;0.90;70.40;;;;;;5067623;28;20265;-28
2024/01/08 04:58:01;;;;;;;0.00;0.00;;;0.90;70.40;;;;;;5069107;28;20247;-27
2024/01/08 05:00:29;;;;;;;0.00;0.00;;;0.90;70.40;;;;;;5065606;28;20200;-28
2024/01/08 05:02:59;;;;;;;0.00;0.00;;;0.90;70.20;;;;;;5065150;28;20304;-28
2024/01/08 05:05:29;;;;;;;0.00;0.00;;;0.90;70.10;;;;;;5066181;28;20239;-28
2024/01/08 05:07:58;;;;;;;0.00;0.00;;;0.90;70.10;;;;;;5067190;28;20207;-27
2024/01/08 05:10:26;;;;;;;0.00;0.00;;;0.90;70.20;;;;;;5065491;28;20696;-27
2024/01/08 05:12:53;;;;;;;0.00;0.00;;;0.90;70.10;;;;;;5066898;28;20219;-27
2024/01/08 05:15:20;;;;;;;0.00;0.00;;;0.90;70.00;;;;;;5065332;28;20195;-28
2024/01/08 05:17:52;;;;;;;0.00;0.00;;;0.90;70.00;;;;;;5066353;28;20756;-28
2024/01/08 05:20:26;;;;;;;0.00;0.00;;;0.80;70.10;;;;;;5066011;28;20227;-27
2024/01/08 05:22:54;;;;;;;0.00;0.00;;;0.90;70.10;;;;;;5067014;28;20210;-27
2024/01/08 05:25:21;;;;;;;0.00;0.00;;;0.80;70.20;;;;;;5064986;28;20281;-27
2024/01/08 05:27:48;;;;;;;0.00;0.00;;;0.80;70.20;;;;;;5066439;28;20628;-28
2024/01/08 05:30:15;;;;;;;0.00;0.00;;;0.90;70.30;;;;;;5064730;28;20226;-27
2024/01/08 05:32:45;;;;;;;0.00;0.00;;;0.80;70.30;;;;;;5071292;28;20207;-27
2024/01/08 05:35:17;;;;;;;0.00;0.00;;;0.80;70.20;;;;;;5088968;28;20211;-28
2024/01/08 05:37:47;;;;;;;0.00;0.00;;;0.90;70.40;;;;;;5088216;28;20722;-28
2024/01/08 05:40:15;;;;;;;0.00;0.00;;;0.90;70.20;;;;;;5089463;28;20211;-27
2024/01/08 05:42:45;;;;;;;0.00;0.00;;;0.90;70.10;;;;;;5089459;28;20190;-27
2024/01/08 05:45:14;;;;;;;0.00;0.00;;;0.90;70.20;;;;;;5087637;28;20244;-27
2024/01/08 05:47:47;;;;;;;0.00;0.00;;;0.80;70.10;;;;;;5086944;28;20214;-27
2024/01/08 05:50:17;;;;;;;0.00;0.00;;;0.80;70.10;;;;;;5086074;28;20237;-27
2024/01/08 05:52:44;;;;;;;0.00;0.00;;;0.80;70.10;;;;;;5084968;28;20206;-27
2024/01/08 05:55:17;;;;;;;0.00;0.00;;;0.80;70.00;;;;;;5067827;28;20832;-27
2024/01/08 05:57:44;;;;;;;0.00;0.00;;;0.80;70.20;;;;;;5067118;28;20592;-27
2024/01/08 06:00:12;;;;;;;0.00;0.00;;;0.80;70.30;;;;;;5064086;28;20208;-27
2024/01/08 06:02:39;;;;;;;0.00;0.00;;;0.80;70.30;;;;;;5065708;28;20673;-28
2024/01/08 06:05:09;;;;;;;0.00;0.00;;;0.80;70.30;;;;;;5066443;28;20212;-27
2024/01/08 06:07:41;;;;;;;0.00;0.00;;;0.80;70.30;;;;;;5066063;28;20228;-27
2024/01/08 06:10:11;;;;;;;0.00;0.00;;;0.80;70.30;;;;;;5064245;28;20296;-27
2024/01/08 06:12:42;;;;;;;0.00;0.00;;;0.80;70.30;;;;;;5061123;28;20213;-27
2024/01/08 06:15:10;;;;;;;0.00;0.00;;;0.80;70.30;;;;;;5079516;28;20219;-27
2024/01/08 06:17:40;;;;;;;0.00;0.00;;;0.80;70.20;;;;;;5064105;28;20593;-27
2024/01/08 06:20:15;;;;;;;0.00;0.00;;;0.80;70.20;;;;;;5066862;28;20299;-27
2024/01/08 06:22:42;;;;;;;0.00;0.00;;;0.80;70.10;;;;;;5067281;28;20458;-27
2024/01/08 06:25:12;;;;;;;0.00;0.00;;;0.80;70.10;;;;;;5083924;28;20218;-27
2024/01/08 06:27:39;;;;;;;0.00;0.00;;;0.80;70.20;;;;;;5080087;28;20211;-27
2024/01/08 06:30:07;;;;;;;0.00;0.00;;;0.80;70.30;;;;;;5082884;28;20711;-27
2024/01/08 06:32:34;;;;;;;0.00;0.00;;;0.80;70.40;;;;;;5082353;28;20203;-28
2024/01/08 06:35:05;;;;;;;0.00;0.00;;;0.80;70.20;;;;;;5082296;28;20203;-28
2024/01/08 06:37:37;;;;;;;0.00;0.00;;;0.80;70.20;;;;;;5082883;28;20214;-27
2024/01/08 06:40:06;;;;;;;0.00;0.00;;;0.80;70.20;;;;;;5083567;28;20187;-27
2024/01/08 06:42:38;;;;;;;0.00;0.00;;;0.80;70.30;;;;;;5082199;28;20203;-27
2024/01/08 06:45:27;;;;;;;0.00;0.00;;;0.80;70.20;;;;;;5077742;28;20199;-27
2024/01/08 06:47:57;;;;;;;0.00;0.00;;;0.80;70.10;;;;;;5065449;28;20191;-27
2024/01/08 06:50:25;;;;;;;0.00;0.00;;;0.80;70.20;;;;;;5083339;28;20211;-28
2024/01/08 06:52:57;;;;;;;0.00;0.00;;;0.70;70.20;;;;;;5083322;28;20199;-28
2024/01/08 06:55:27;;;;;;;0.00;0.00;;;0.80;70.30;;;;;;5078494;28;20203;-27
2024/01/08 06:57:54;;;;;;;0.00;0.00;;;0.80;70.20;;;;;;5081920;28;20207;-28
2024/01/08 07:00:22;;;;;;;0.00;0.00;;;0.70;70.10;;;;;;5087284;28;20652;-28
2024/01/08 07:02:51;;;;;;;0.00;0.00;;;0.80;70.30;;;;;;5062935;28;20215;-27
2024/01/08 07:05:19;;;;;;;0.00;0.00;;;0.80;70.40;;;;;;5059271;28;20665;-27
2024/01/08 07:07:46;;;;;;;0.00;0.00;;;0.80;70.50;;;;;;5084386;28;20301;-27
2024/01/08 07:10:18;;;;;;;0.00;0.00;;;0.80;70.30;;;;;;5085200;28;20235;-27
2024/01/08 07:12:46;;;;;;;0.00;0.00;;;0.80;70.30;;;;;;5069887;28;20203;-27
2024/01/08 07:15:43;;;;;;;0.00;0.00;;;0.80;70.30;;;;;;5066448;28;20256;-28
2024/01/08 07:18:10;;;;;;;0.00;0.00;;;0.80;70.30;;;;;;5086293;28;20677;-27
2024/01/08 07:20:39;;;;;;;0.00;0.00;;;0.80;70.30;;;;;;5084345;28;20221;-27
2024/01/08 07:23:11;;;;;;;0.00;0.00;;;0.70;70.30;;;;;;5087528;28;20718;-27
2024/01/08 07:25:39;;;;;;;0.00;0.00;;;0.70;70.30;;;;;;5084354;28;20203;-27
2024/01/08 07:28:11;;;;;;;0.00;0.00;;;0.80;70.40;;;;;;5085570;28;20222;-27
2024/01/08 07:30:41;;;;;;;0.00;0.00;;;0.80;70.50;;;;;;5071813;28;20247;-27
2024/01/08 07:33:08;;;;;;;0.00;0.00;;;0.80;70.60;;;;;;5084682;28;20194;-28
2024/01/08 07:35:38;;;;;;;0.00;0.00;;;0.80;70.50;;;;;;5085519;28;20740;-27
2024/01/08 07:38:05;;;;;;;0.00;0.00;;;0.80;70.50;;;;;;5085622;28;20684;-27
2024/01/08 07:40:33;;;;;;;0.00;0.00;;;0.80;70.50;;;;;;5082389;28;20673;-27
2024/01/08 07:43:02;;;;;;;0.00;0.00;;;0.90;70.60;;;;;;5085927;28;20777;-29
2024/01/08 07:45:32;;;;;;;0.00;0.00;;;0.90;70.50;;;;;;5087133;28;20241;-27
2024/01/08 07:48:01;;;;;;;0.00;0.00;;;0.90;70.50;;;;;;5085826;28;20217;-27
2024/01/08 07:50:29;;;;;;;0.00;0.00;;;0.80;70.40;;;;;;5085433;28;20203;-27
2024/01/08 07:53:01;;;;;;;0.00;0.00;;;0.80;70.50;;;;;;5068175;28;20213;-27
2024/01/08 07:55:31;;;;;;;0.00;0.00;;;0.90;70.50;;;;;;5076517;28;20641;-27
2024/01/08 07:58:01;;;;;;;0.00;0.00;;;0.90;70.50;;;;;;5083577;28;20222;-27
2024/01/08 08:00:30;;;;;;;0.00;0.00;;;0.90;70.60;;;;;;5073849;28;20645;-27
2024/01/08 08:02:57;;;;;;;0.00;0.00;;;0.90;70.50;;;;;;5080055;28;20191;-27
2024/01/08 08:05:27;;;;;;;0.00;0.00;;;0.90;70.50;;;;;;5083251;28;20235;-28
2024/01/08 08:08:00;;;;;;;0.00;0.00;;;0.90;70.50;;;;;;5078860;28;20692;-27
2024/01/08 08:10:32;;;;;;;0.00;0.00;;;1.00;70.70;;;;;;5080292;28;20202;-27
2024/01/08 08:13:01;;;;;;;0.00;0.00;;;1.00;70.60;;;;;;5081827;28;20260;-27
2024/01/08 08:15:28;;;;;;;0.00;0.00;;;1.00;70.60;;;;;;5083778;28;20625;-27
2024/01/08 08:17:58;;;;;;;0.00;0.00;;;1.00;70.70;;;;;;5082481;28;20309;-27
2024/01/08 08:20:32;;;;;;;0.00;0.00;;;1.00;70.70;;;;;;5080346;28;20719;-28
2024/01/08 08:23:00;;;;;;;0.00;0.00;;;1.00;70.60;;;;;;5068437;28;20218;-27
2024/01/08 08:25:29;;;;;;;0.00;0.00;;;1.00;70.50;;;;;;5085189;28;20199;-27
2024/01/08 08:27:57;;;;;;;0.00;0.00;;;1.10;70.70;;;;;;5083936;28;20310;-28
2024/01/08 08:30:24;;;;;;;0.00;0.00;;;1.10;70.70;;;;;;5086192;28;20207;-27
2024/01/08 08:32:56;;;;;;;0.00;0.00;;;1.10;70.70;;;;;;5084806;28;20214;-27
2024/01/08 08:35:29;;;;;;;0.00;0.00;;;1.00;70.60;;;;;;5086000;28;20207;-27
2024/01/08 08:37:59;;;;;;;0.00;0.00;;;1.10;70.70;;;;;;5084937;28;20195;-27
2024/01/08 08:40:28;;;;;;;0.00;0.00;;;1.10;70.70;;;;;;5085911;28;20234;-27
2024/01/08 08:42:56;;;;;;;0.00;0.00;;;1.10;70.60;;;;;;5076015;28;20199;-27
2024/01/08 08:45:23;;;;;;;0.00;0.00;;;1.10;70.70;;;;;;5087547;28;20198;-27
2024/01/08 08:47:52;;;;;;;0.00;0.00;;;1.10;70.70;;;;;;5077781;28;20218;-27
2024/01/08 08:50:20;;;;;;;0.00;0.00;;;1.10;70.70;;;;;;5082690;28;20207;-27
2024/01/08 08:52:47;;;;;;;0.00;0.00;;;1.10;70.80;;;;;;5090552;28;20938;-27
2024/01/08 08:55:15;;;;;;;0.00;0.00;;;1.20;70.80;;;;;;5072687;28;20350;-27
2024/01/08 08:57:42;;;;;;;0.00;0.00;;;1.20;70.80;;;;;;5086456;28;20756;-27
2024/01/08 09:00:10;;;;;;;0.00;0.00;;;1.20;70.80;;;;;;5087413;28;20327;-27
2024/01/08 09:02:41;;;;;;;0.00;0.00;;;1.20;70.80;;;;;;5071914;28;20195;-28
2024/01/08 09:05:14;;;;;;;0.00;0.00;;;1.20;70.80;;;;;;5086370;28;20221;-27
2024/01/08 09:07:56;;;;;;;0.00;0.00;;;1.30;70.90;;;;;;5084561;28;20630;-27
2024/01/08 09:10:23;;;;;;;0.00;0.00;;;1.30;70.80;;;;;;5081064;28;20187;-27
2024/01/08 09:12:53;;;;;;;0.00;0.00;;;1.30;71.60;;;;;;5081918;28;20199;-27
2024/01/08 09:15:20;;;;;;;0.00;0.00;;;1.30;70.80;;;;;;5079707;28;20243;-27
2024/01/08 09:17:48;;;;;;;0.00;0.00;;;1.30;70.80;;;;;;5078312;28;20199;-27
2024/01/08 09:20:17;;;;;;;0.00;0.00;;;1.30;70.80;;;;;;5075643;28;20496;-28
2024/01/08 09:22:45;;;;;;;0.00;0.00;;;1.30;70.70;;;;;;5077668;28;20218;-27
2024/01/08 09:25:17;;;;;;;0.00;0.00;;;1.30;70.90;;;;;;5080240;28;20290;-27
2024/01/08 09:27:47;;;;;;;0.00;0.00;;;1.30;70.90;;;;;;5082888;28;20199;-27
2024/01/08 09:30:14;;;;;;;0.00;0.00;;;1.30;70.90;;;;;;5084498;28;20198;-27
2024/01/08 09:32:51;;;;;;;0.00;0.00;;;1.40;71.10;;;;;;5083604;28;20210;-27
2024/01/08 09:35:24;;;;;;;0.00;0.00;;;1.40;71.10;;;;;;5069799;28;20206;-27
2024/01/08 09:37:51;;;;;;;0.00;0.00;;;1.40;71.10;;;;;;5084207;28;20205;-27
2024/01/08 09:40:19;;;;;;;0.00;0.00;;;1.40;71.10;;;;;;5081267;28;20638;-27
2024/01/08 09:42:52;;;;;;;0.00;0.00;;;1.40;71.20;;;;;;5073877;28;20211;-27
2024/01/08 09:45:23;;;;;;;0.00;0.00;;;1.40;71.20;;;;;;5088354;28;20226;-27
2024/01/08 09:47:51;;;;;;;0.00;0.00;;;1.40;71.10;;;;;;5081422;28;20220;-27
2024/01/08 09:50:22;;;;;;;0.00;0.00;;;1.40;71.20;;;;;;5087798;28;20206;-27
2024/01/08 09:52:51;;;;;;;0.00;0.00;;;1.50;71.30;;;;;;5080133;28;20289;-27
2024/01/08 09:55:21;;;;;;;0.00;0.00;;;1.50;71.20;;;;;;5080774;28;20230;-27
2024/01/08 09:57:53;;;;;;;0.00;0.00;;;1.50;71.20;;;;;;5076318;28;20212;-27
2024/01/08 10:00:23;;;;;;;0.00;0.00;;;1.50;71.10;;;;;;5070542;28;20230;-27
2024/01/08 10:02:58;;;;;;;0.00;0.00;;;1.50;71.20;;;;;;5069741;28;20191;-27
2024/01/08 10:05:28;;;;;;;0.00;0.00;;;1.50;71.30;;;;;;5082615;28;20321;-27
2024/01/08 10:08:00;;;;;;;0.00;0.00;;;1.50;71.30;;;;;;5078713;28;20198;-27
2024/01/08 10:10:30;;;;;;;0.00;0.00;;;1.50;71.30;;;;;;5070653;28;20257;-27
2024/01/08 10:12:58;;;;;;;0.00;0.00;;;1.50;71.30;;;;;;5075047;28;20562;-28
2024/01/08 10:15:27;;;;;;;0.00;0.00;;;1.50;71.30;;;;;;5083541;28;20260;-27
2024/01/08 10:18:01;;;;;;;0.00;0.00;;;1.50;71.30;;;;;;5077480;28;20210;-27
2024/01/08 10:20:32;;;;;;;0.00;0.00;;;1.50;71.40;;;;;;5082446;28;20214;-27
2024/01/08 10:23:08;;;;;;;0.00;0.00;;;1.50;71.40;;;;;;5066572;28;20879;-27
2024/01/08 10:25:38;;;;;;;0.00;0.00;;;1.60;71.50;;;;;;5077752;28;20210;-27
2024/01/08 10:28:09;;;;;;;0.00;0.00;;;1.60;71.40;;;;;;5088119;28;20292;-28
2024/01/08 10:30:36;;;;;;;0.00;0.00;;;1.60;71.50;;;;;;5079645;28;20206;-27
2024/01/08 10:33:04;;;;;;;0.00;0.00;;;1.60;71.40;;;;;;5081837;28;20207;-27
2024/01/08 10:35:31;;;;;;;0.00;0.00;;;1.60;71.40;;;;;;5076974;28;20199;-27
2024/01/08 10:38:02;;;;;;;0.00;0.00;;;1.60;71.40;;;;;;5076910;28;20195;-27
2024/01/08 10:40:31;;;;;;;0.00;0.00;;;1.60;71.40;;;;;;5080784;28;20337;-27
2024/01/08 10:43:03;;;;;;;0.00;0.00;;;1.70;71.60;;;;;;5078142;28;20211;-27
2024/01/08 10:45:30;;;;;;;0.00;0.00;;;1.70;71.60;;;;;;5084526;28;21506;-27
2024/01/08 10:48:19;;;;;;;0.00;0.00;;;1.70;71.50;;;;;;5081990;28;20211;-27
2024/01/08 10:50:51;;;;;;;0.00;0.00;;;1.70;71.40;;;;;;5081600;28;20199;-27
2024/01/08 10:53:39;;;;;;;0.00;0.00;;;1.70;71.30;;;;;;5078298;28;20199;-27
2024/01/08 10:56:13;;;;;;;0.00;0.00;;;1.70;71.30;;;;;;5072978;28;20198;-27
2024/01/08 10:59:05;;;;;;;0.00;0.00;;;1.70;71.30;;;;;;5083166;28;20712;-26
2024/01/08 11:01:33;;;;;;;0.00;0.00;;;1.70;71.30;;;;;;5082976;28;20207;-27
2024/01/08 11:04:04;;;;;;;0.00;0.00;;;1.70;71.30;;;;;;5076240;28;20210;-27
2024/01/08 11:06:36;;;;;;;0.00;0.00;;;1.70;71.30;;;;;;5082235;28;20244;-27
2024/01/08 11:09:37;;;;;;;0.00;0.00;;;1.70;71.40;;;;;;5071897;28;20207;-27
2024/01/08 11:12:08;;;;;;;0.00;0.00;;;1.70;71.30;;;;;;5080507;28;20288;-27
2024/01/08 11:14:35;;;;;;;0.00;0.00;;;1.70;71.30;;;;;;5080017;28;20627;-37
2024/01/08 11:17:03;;;;;;;0.00;0.00;;;1.70;71.30;;;;;;5083301;28;20264;-37
2024/01/08 11:19:30;;;;;;;0.00;0.00;;;1.70;71.50;;;;;;5086646;28;20254;-37
2024/01/08 11:22:12;;;;;;;0.00;0.00;;;1.70;71.50;;;;;;5083783;28;20199;-37
2024/01/08 11:24:39;;;;;;;0.00;0.00;;;1.70;71.40;;;;;;5084304;28;20687;-39
2024/01/08 11:27:06;;;;;;;0.00;0.00;;;1.70;71.30;;;;;;5084470;28;20198;-38
2024/01/08 11:29:36;;;;;;;0.00;0.00;;;1.70;71.10;;;;;;5082457;28;20215;-36
2024/01/08 11:32:42;;;;;;;0.00;0.00;;;1.70;71.00;;;;;;5071780;28;20205;-38
2024/01/08 11:35:13;;;;;;;0.00;0.00;;;1.70;71.00;;;;;;5080570;28;20704;-37
2024/01/08 11:37:42;;;;;;;0.00;0.00;;;1.70;70.90;;;;;;5081876;28;21014;-39
2024/01/08 11:40:17;;;;;;;0.00;0.00;;;1.70;71.00;;;;;;5081826;28;20763;-36
2024/01/08 11:42:45;;;;;;;0.00;0.00;;;1.70;71.10;;;;;;5080363;28;20190;-36
2024/01/08 11:45:19;;;;;;;0.00;0.00;;;1.70;70.80;;;;;;5084800;28;20217;-38
2024/01/08 11:47:47;;;;;;;0.00;0.00;;;1.70;71.00;;;;;;5080998;28;20206;-38
2024/01/08 11:50:18;;;;;;;0.00;0.00;;;1.80;71.10;;;;;;5067000;28;20242;-36
2024/01/08 11:52:48;;;;;;;0.00;0.00;;;1.80;71.20;;;;;;5082318;28;20218;-37
2024/01/08 11:55:20;;;;;;;0.00;0.00;;;1.80;71.20;;;;;;5084972;28;20223;-37
2024/01/08 11:57:47;;;;;;;0.00;0.00;;;1.80;71.20;;;;;;5087235;28;20908;-36
2024/01/08 12:00:19;;;;;;;0.00;0.00;;;1.80;71.00;;;;;;5089851;28;20275;-36
2024/01/08 12:02:49;;;;;;;0.00;0.00;;;1.90;71.10;;;;;;5084192;28;20202;-37
2024/01/08 12:05:16;;;;;;;0.00;0.00;;;1.90;71.20;;;;;;5087199;28;20222;-37
2024/01/08 12:07:51;;;;;;;0.00;0.00;;;1.90;71.30;;;;;;5087562;28;20260;-37
2024/01/08 12:10:19;;;;;;;0.00;0.00;;;2.00;71.10;;;;;;5088298;28;20202;-37
2024/01/08 12:12:49;;;;;;;0.00;0.00;;;2.00;71.30;;;;;;5085747;28;20318;-38
2024/01/08 12:15:21;;;;;;;0.00;0.00;;;2.00;71.10;;;;;;5086944;28;20289;-37
2024/01/08 12:17:51;;;;;;;0.00;0.00;;;2.00;71.00;;;;;;5085560;28;20297;-37
2024/01/08 12:20:18;;;;;;;0.00;0.00;;;2.00;71.10;;;;;;5085319;28;20707;-37
2024/01/08 12:22:46;;;;;;;0.00;0.00;;;2.00;71.10;;;;;;5083188;28;20233;-38
2024/01/08 12:25:14;;;;;;;0.00;0.00;;;2.00;71.20;;;;;;5086094;28;20205;-37
2024/01/08 12:27:47;;;;;;;0.00;0.00;;;2.00;71.10;;;;;;5079452;28;20721;-37
2024/01/08 12:30:17;;;;;;;0.00;0.00;;;2.00;71.10;;;;;;5076789;28;20213;-36
2024/01/08 12:32:46;;;;;;;0.00;0.00;;;2.10;71.00;;;;;;5084902;28;20226;-36
2024/01/08 12:35:17;;;;;;;0.00;0.00;;;2.10;70.90;;;;;;5087674;28;20630;-38
2024/01/08 12:37:44;;;;;;;0.00;0.00;;;2.00;70.70;;;;;;5080597;28;20278;-37
2024/01/08 12:40:13;;;;;;;0.00;0.00;;;2.00;70.50;;;;;;5088779;28;20242;-39
2024/01/08 12:42:45;;;;;;;0.00;0.00;;;2.00;70.80;;;;;;5087334;28;20195;-38
2024/01/08 12:45:17;;;;;;;0.00;0.00;;;2.00;70.60;;;;;;5087090;28;20215;-36
2024/01/08 12:47:47;;;;;;;0.00;0.00;;;2.00;70.50;;;;;;5065675;28;20671;-37
2024/01/08 12:50:28;;;;;;;0.00;0.00;;;1.90;70.50;;;;;;5066888;28;20199;-37
2024/01/08 12:52:57;;;;;;;0.00;0.00;;;1.90;70.60;;;;;;5083645;28;20202;-37
2024/01/08 12:55:24;;;;;;;0.00;0.00;;;1.90;70.10;;;;;;5086564;28;20206;-36
2024/01/08 12:57:57;;;;;;;0.00;0.00;;;1.90;70.40;;;;;;5087197;28;20210;-37
2024/01/08 13:00:28;;;;;;;0.00;0.00;;;1.90;70.40;;;;;;5086517;28;20613;-36
2024/01/08 13:03:00;;;;;;;0.00;0.00;;;1.90;70.50;;;;;;5082519;28;20211;-36
2024/01/08 13:05:30;;;;;;;0.00;0.00;;;1.90;70.50;;;;;;5084009;28;20251;-36
2024/01/08 13:08:03;;;;;;;0.00;0.00;;;1.90;70.40;;;;;;5085671;28;20207;-37
2024/01/08 13:10:30;;;;;;;0.00;0.00;;;1.80;70.50;;;;;;5084660;28;20203;-37